Time;durP1;ratioP1;P1;durP2;ratioP2;P2;SDS_P1;SDS_P2;PMS_P1;PMS_P2;Temp;Humidity;BMP_temperature;BMP_pressure;BME280_temperature;BME280_humidity;BME280_pressure;Samples;Min_cycle;Max_cycle;Signal;HPM_P1;HPM_P2
2021/01/03 00:02:05;;;;;;;448.65;210.57;;;;;;;-1.74;74.94;94646.38;1700456;81;21118;-56
2021/01/03 00:04:33;;;;;;;444.02;206.32;;;;;;;-1.80;74.87;94638.43;1783491;80;21265;-57
2021/01/03 00:07:02;;;;;;;424.50;198.17;;;;;;;-1.81;74.94;94640.16;1783919;80;21365;-59
2021/01/03 00:09:30;;;;;;;357.40;163.50;;;;;;;-1.82;74.88;94644.77;1780449;80;21096;-57
2021/01/03 00:11:58;;;;;;;388.90;178.47;;;;;;;-1.79;75.01;94642.67;1750646;81;21099;-57
2021/01/03 00:14:30;;;;;;;390.10;171.35;;;;;;;-1.76;75.15;94646.76;1787051;80;21069;-57
2021/01/03 00:17:01;;;;;;;384.67;179.53;;;;;;;-1.72;75.19;94644.86;1775787;80;21071;-56
2021/01/03 00:19:29;;;;;;;388.07;182.37;;;;;;;-1.72;74.80;94653.55;1759515;81;21388;-55
2021/01/03 00:21:57;;;;;;;392.77;176.72;;;;;;;-1.79;74.57;94649.41;1754586;81;21094;-59
2021/01/03 00:24:25;;;;;;;314.02;139.45;;;;;;;-1.80;74.75;94649.21;1786416;80;21501;-56
2021/01/03 00:26:53;;;;;;;269.32;124.90;;;;;;;-1.82;74.29;94643.98;1778557;80;21124;-58
2021/01/03 00:29:21;;;;;;;288.32;137.15;;;;;;;-1.91;73.90;94651.05;1741885;81;21092;-56
2021/01/03 00:31:50;;;;;;;389.82;176.70;;;;;;;-2.02;74.30;94650.16;1780517;80;21388;-56
2021/01/03 00:34:19;;;;;;;430.80;200.07;;;;;;;-1.99;74.72;94654.80;1747886;80;21658;-58
2021/01/03 00:36:48;;;;;;;394.05;177.12;;;;;;;-2.00;74.73;94656.54;1775393;80;21076;-55
2021/01/03 00:39:16;;;;;;;392.52;179.72;;;;;;;-1.96;74.83;94655.41;1759391;81;21178;-55
2021/01/03 00:41:49;;;;;;;431.97;197.72;;;;;;;-1.95;74.60;94654.27;1778988;80;21117;-56
2021/01/03 00:44:19;;;;;;;382.50;170.15;;;;;;;-1.92;74.92;94656.80;1787906;80;21210;-56
2021/01/03 00:46:47;;;;;;;340.12;155.90;;;;;;;-1.87;74.81;94649.16;1779931;80;21096;-57
2021/01/03 00:49:15;;;;;;;278.30;129.00;;;;;;;-1.93;74.45;94638.49;1740456;81;21133;-58
2021/01/03 00:51:43;;;;;;;405.37;189.07;;;;;;;-1.96;74.65;94651.37;1745336;81;21156;-56
2021/01/03 00:54:11;;;;;;;345.10;157.37;;;;;;;-1.89;74.51;94647.97;1781470;80;21154;-56
2021/01/03 00:56:39;;;;;;;280.15;124.65;;;;;;;-1.89;74.48;94644.72;1778668;80;21209;-57
2021/01/03 00:59:06;;;;;;;238.52;114.85;;;;;;;-1.99;73.99;94648.06;1751747;81;21146;-58
2021/01/03 01:01:35;;;;;;;257.48;117.28;;;;;;;-2.08;74.13;94643.56;1753798;81;21151;-58
2021/01/03 01:04:02;;;;;;;311.77;135.35;;;;;;;-2.13;74.20;94643.11;1787654;80;21170;-57
2021/01/03 01:06:30;;;;;;;363.25;161.12;;;;;;;-2.13;74.28;94649.85;1773024;80;21230;-57
2021/01/03 01:08:58;;;;;;;416.02;194.75;;;;;;;-2.12;74.24;94650.81;1770903;80;21394;-57
2021/01/03 01:11:28;;;;;;;410.57;184.00;;;;;;;-2.13;74.41;94649.27;1732853;81;21088;-56
2021/01/03 01:13:56;;;;;;;383.62;169.93;;;;;;;-2.10;74.60;94648.52;1779468;80;21209;-57
2021/01/03 01:16:24;;;;;;;398.65;177.85;;;;;;;-2.06;74.41;94649.36;1775282;80;21130;-56
2021/01/03 01:18:51;;;;;;;388.60;180.67;;;;;;;-2.03;74.43;94644.57;1773438;81;21074;-57
2021/01/03 01:21:20;;;;;;;406.40;182.05;;;;;;;-2.02;74.46;94650.16;1765565;81;21449;-57
2021/01/03 01:23:48;;;;;;;348.32;157.82;;;;;;;-2.02;74.20;94646.12;1742719;81;21091;-55
2021/01/03 01:26:16;;;;;;;349.12;158.12;;;;;;;-2.03;74.42;94640.52;1746173;81;21618;-56
2021/01/03 01:28:44;;;;;;;318.70;147.93;;;;;;;-2.00;74.29;94640.38;1748667;81;21159;-56
2021/01/03 01:31:12;;;;;;;327.95;154.15;;;;;;;-2.03;74.21;94640.52;1750275;81;21133;-57
2021/01/03 01:33:39;;;;;;;335.60;146.87;;;;;;;-2.02;74.30;94640.73;1752372;81;21391;-56
2021/01/03 01:36:08;;;;;;;322.02;143.22;;;;;;;-1.98;74.23;94645.58;1787785;80;21060;-56
2021/01/03 01:38:36;;;;;;;295.33;133.00;;;;;;;-1.96;74.06;94643.87;1778498;80;21578;-56
2021/01/03 01:41:04;;;;;;;296.50;137.45;;;;;;;-1.97;73.88;94641.73;1772352;80;21068;-57
2021/01/03 01:43:32;;;;;;;296.77;134.37;;;;;;;-1.97;73.68;94640.97;1746264;81;21187;-57
2021/01/03 01:46:00;;;;;;;318.10;141.80;;;;;;;-1.99;73.55;94637.88;1755211;81;22059;-56
2021/01/03 01:48:35;;;;;;;293.55;136.97;;;;;;;-2.01;73.28;94636.89;1782941;80;21503;-58
2021/01/03 01:51:14;;;;;;;322.70;139.90;;;;;;;-2.06;73.50;94640.48;1780241;80;21674;-58
2021/01/03 01:53:53;;;;;;;271.23;118.93;;;;;;;-2.06;73.71;94645.88;1750445;81;21075;-57
2021/01/03 01:56:50;;;;;;;226.75;109.78;;;;;;;-2.06;73.51;94641.27;1756905;81;21095;-57
2021/01/03 01:59:45;;;;;;;237.30;108.57;;;;;;;-2.12;73.20;94633.30;1760309;81;21208;-57
2021/01/03 02:02:36;;;;;;;312.32;139.57;;;;;;;-2.27;73.40;94641.61;1716954;81;21230;-56
2021/01/03 02:05:33;;;;;;;326.50;143.13;;;;;;;-2.37;73.47;94640.35;1751715;81;21175;-57
2021/01/03 02:08:14;;;;;;;340.65;156.63;;;;;;;-2.45;73.97;94638.73;1754607;81;21103;-58
2021/01/03 02:10:46;;;;;;;354.27;155.30;;;;;;;-2.49;74.03;94650.59;1702045;82;21191;-57
2021/01/03 02:13:27;;;;;;;266.27;118.45;;;;;;;-2.51;74.18;94651.54;1727605;82;21206;-57
2021/01/03 02:16:00;;;;;;;222.98;103.15;;;;;;;-2.48;74.12;94642.72;1739735;80;21150;-57
2021/01/03 02:18:28;;;;;;;233.45;105.70;;;;;;;-2.57;73.70;94639.52;1760860;79;21076;-57
2021/01/03 02:21:36;;;;;;;213.40;102.32;;;;;;;-2.68;74.00;94639.39;1767382;79;21411;-56
2021/01/03 02:24:46;;;;;;;247.22;117.45;;;;;;;-2.67;74.34;94635.56;1755381;80;21567;-56
2021/01/03 02:27:23;;;;;;;305.05;135.32;;;;;;;-2.72;74.28;94631.85;1704494;82;23153;-56
2021/01/03 02:29:52;;;;;;;343.63;154.82;;;;;;;-2.75;74.66;94631.24;1720719;82;21075;-57
2021/01/03 02:32:20;;;;;;;315.12;142.32;;;;;;;-2.71;74.67;94632.64;1763799;78;21186;-57
2021/01/03 02:34:49;;;;;;;297.50;136.45;;;;;;;-2.72;74.47;94626.47;1733572;79;21205;-56
2021/01/03 02:37:22;;;;;;;250.70;115.35;;;;;;;-2.72;74.59;94619.74;1801924;78;21193;-57
2021/01/03 02:40:14;;;;;;;215.05;102.20;;;;;;;-2.68;74.52;94619.20;1786256;79;21236;-57
2021/01/03 02:42:43;;;;;;;220.02;103.55;;;;;;;-2.66;74.69;94616.92;1787692;78;21122;-57
2021/01/03 02:45:19;;;;;;;243.33;111.00;;;;;;;-2.53;74.90;94622.86;1781871;78;21096;-56
2021/01/03 02:47:47;;;;;;;225.97;102.85;;;;;;;-2.41;74.85;94624.73;1800308;79;21138;-57
2021/01/03 02:50:20;;;;;;;207.77;98.92;;;;;;;-2.34;74.42;94613.27;1806239;78;21115;-56
2021/01/03 02:52:50;;;;;;;203.95;91.47;;;;;;;-2.37;74.19;94618.02;1791523;78;21357;-57
2021/01/03 02:55:18;;;;;;;200.68;97.57;;;;;;;-2.36;74.28;94624.39;1768856;79;21293;-57
2021/01/03 02:57:46;;;;;;;192.15;90.42;;;;;;;-2.28;74.18;94619.30;1785294;79;21263;-58
2021/01/03 03:00:37;;;;;;;191.73;90.70;;;;;;;-2.18;74.23;94615.17;1794727;79;21062;-56
2021/01/03 03:03:05;;;;;;;204.50;96.65;;;;;;;-2.08;74.23;94621.22;1783066;79;21103;-56
2021/01/03 03:05:33;;;;;;;234.12;102.45;;;;;;;-2.05;73.83;94616.43;1788565;78;21349;-57
2021/01/03 03:08:01;;;;;;;263.73;119.53;;;;;;;-2.15;73.66;94621.92;1783727;78;21076;-57
2021/01/03 03:10:29;;;;;;;242.65;116.17;;;;;;;-2.27;74.00;94619.50;1804138;78;21076;-56
2021/01/03 03:13:00;;;;;;;232.80;110.03;;;;;;;-2.21;74.17;94622.62;1779789;78;21095;-56
2021/01/03 03:15:31;;;;;;;246.97;114.25;;;;;;;-2.19;73.92;94614.38;1783737;78;21518;-56
2021/01/03 03:18:00;;;;;;;246.45;110.48;;;;;;;-2.25;73.85;94609.12;1790455;78;21353;-55
2021/01/03 03:20:28;;;;;;;244.57;110.70;;;;;;;-2.27;74.20;94603.91;1803789;78;21175;-57
2021/01/03 03:22:55;;;;;;;235.10;109.78;;;;;;;-2.22;74.31;94594.12;1774934;79;21182;-57
2021/01/03 03:25:24;;;;;;;233.28;105.03;;;;;;;-2.16;74.33;94612.28;1790504;79;21160;-56
2021/01/03 03:27:52;;;;;;;200.30;98.12;;;;;;;-2.07;74.37;94606.05;1806486;78;21147;-57
2021/01/03 03:30:22;;;;;;;211.10;100.97;;;;;;;-1.92;74.33;94607.70;1790935;79;21480;-58
2021/01/03 03:32:52;;;;;;;201.00;98.80;;;;;;;-1.77;73.86;94615.55;1777497;78;21146;-57
2021/01/03 03:35:27;;;;;;;202.45;95.80;;;;;;;-1.73;73.50;94608.86;1800048;79;21175;-57
2021/01/03 03:37:56;;;;;;;211.77;100.42;;;;;;;-1.78;73.40;94609.18;1805292;79;21132;-56
2021/01/03 03:40:24;;;;;;;208.30;99.32;;;;;;;-1.76;73.68;94609.58;1805741;79;21108;-56
2021/01/03 03:42:51;;;;;;;215.22;103.22;;;;;;;-1.65;73.51;94609.10;1790257;79;21496;-56
2021/01/03 03:45:19;;;;;;;220.25;104.45;;;;;;;-1.56;73.34;94608.98;1791431;79;21076;-56
2021/01/03 03:47:48;;;;;;;206.02;97.65;;;;;;;-1.48;73.11;94611.17;1793174;79;21211;-57
2021/01/03 03:50:20;;;;;;;188.80;91.10;;;;;;;-1.39;72.98;94615.65;1798375;79;21192;-56
2021/01/03 03:52:47;;;;;;;200.80;95.07;;;;;;;-1.33;72.59;94629.01;1777097;78;21123;-56
2021/01/03 03:55:15;;;;;;;170.32;85.20;;;;;;;-1.35;72.46;94635.36;1797070;79;22709;-57
2021/01/03 03:57:43;;;;;;;181.80;86.40;;;;;;;-1.33;72.50;94637.10;1786064;78;21151;-57
2021/01/03 04:00:19;;;;;;;206.45;100.02;;;;;;;-1.32;72.50;94631.91;1795557;79;21048;-56
2021/01/03 04:02:47;;;;;;;226.90;105.05;;;;;;;-1.30;72.47;94641.74;1775410;79;21170;-57
2021/01/03 04:05:19;;;;;;;237.68;110.12;;;;;;;-1.43;72.34;94641.83;1770711;79;21123;-57
2021/01/03 04:07:47;;;;;;;209.25;95.00;;;;;;;-1.54;72.64;94638.30;1791806;78;21404;-55
2021/01/03 04:10:17;;;;;;;256.30;104.03;;;;;;;-1.55;72.89;94638.06;1777319;78;21134;-56
2021/01/03 04:12:45;;;;;;;228.80;96.10;;;;;;;-1.65;72.77;94641.46;1802325;79;21155;-56
2021/01/03 04:15:15;;;;;;;196.95;90.53;;;;;;;-1.80;73.09;94639.02;1801063;79;21199;-56
2021/01/03 04:17:44;;;;;;;189.93;87.67;;;;;;;-1.85;73.23;94642.82;1807616;79;21123;-57
2021/01/03 04:20:16;;;;;;;184.37;87.02;;;;;;;-1.86;73.57;94638.58;1798632;79;21526;-56
2021/01/03 04:22:44;;;;;;;180.75;87.02;;;;;;;-1.82;73.61;94638.03;1798132;79;21153;-56
2021/01/03 04:25:13;;;;;;;200.80;90.97;;;;;;;-1.76;73.92;94631.14;1770686;79;21075;-56
2021/01/03 04:27:41;;;;;;;222.80;100.60;;;;;;;-1.66;73.83;94621.80;1775939;78;21059;-56
2021/01/03 04:30:11;;;;;;;211.97;97.12;;;;;;;-1.57;73.65;94622.83;1806815;79;21572;-58
2021/01/03 04:32:39;;;;;;;203.05;97.82;;;;;;;-1.48;73.87;94624.66;1771843;79;21199;-55
2021/01/03 04:35:09;;;;;;;196.65;95.35;;;;;;;-1.37;73.57;94614.70;1783367;79;21065;-55
2021/01/03 04:37:37;;;;;;;197.07;93.42;;;;;;;-1.30;73.39;94621.51;1785939;78;21060;-57
2021/01/03 04:40:08;;;;;;;196.85;95.60;;;;;;;-1.24;73.35;94626.75;1789026;79;21092;-57
2021/01/03 04:42:35;;;;;;;194.37;88.72;;;;;;;-1.18;73.23;94614.47;1770946;79;21265;-57
2021/01/03 04:45:25;;;;;;;196.10;96.50;;;;;;;-1.12;73.11;94608.31;1795304;79;21198;-57
2021/01/03 04:47:58;;;;;;;314.27;149.53;;;;;;;-1.06;73.32;94600.65;1803185;79;21250;-56
2021/01/03 04:50:53;;;;;;;247.48;120.53;;;;;;;-1.08;72.49;94605.66;1805144;79;21147;-55
2021/01/03 04:53:41;;;;;;;214.02;104.03;;;;;;;-1.28;72.63;94588.19;1794015;79;21661;-56
2021/01/03 04:56:18;;;;;;;191.20;98.97;;;;;;;-1.35;72.85;94604.33;1793656;79;21040;-56
2021/01/03 04:59:24;;;;;;;187.10;90.47;;;;;;;-1.39;73.04;94612.95;1802357;79;21451;-56
2021/01/03 05:02:22;;;;;;;170.25;83.17;;;;;;;-1.34;73.13;94619.37;1742927;81;21681;-56
2021/01/03 05:05:30;;;;;;;181.80;91.78;;;;;;;-1.22;72.94;94613.65;1873643;76;22640;-56
2021/01/03 05:08:09;;;;;;;186.52;94.35;;;;;;;-1.31;72.73;94607.82;1841587;78;21048;-57
2021/01/03 05:10:37;;;;;;;166.32;82.20;;;;;;;-1.35;73.04;94600.28;1841102;78;21192;-55
2021/01/03 05:13:31;;;;;;;152.00;77.05;;;;;;;-1.40;72.94;94607.36;1841496;78;21076;-56
2021/01/03 05:15:59;;;;;;;161.60;82.10;;;;;;;-1.52;73.40;94599.58;1767892;78;21185;-55
2021/01/03 05:18:27;;;;;;;173.95;76.57;;;;;;;-1.53;73.77;94603.43;1841607;78;21532;-59
2021/01/03 05:20:57;;;;;;;191.55;88.15;;;;;;;-1.48;73.75;94612.52;1841601;77;21062;-56
2021/01/03 05:23:28;;;;;;;216.73;101.20;;;;;;;-1.52;73.54;94623.27;1841538;78;21074;-55
2021/01/03 05:25:56;;;;;;;252.45;111.15;;;;;;;-1.61;73.61;94609.90;1841622;77;21502;-56
2021/01/03 05:28:33;;;;;;;259.70;124.20;;;;;;;-1.71;73.65;94616.75;1841550;78;21040;-56
2021/01/03 05:31:18;;;;;;;242.45;117.25;;;;;;;-1.82;73.76;94611.63;1841553;78;21121;-56
2021/01/03 05:33:55;;;;;;;280.07;131.00;;;;;;;-1.82;74.19;94619.72;1841641;77;21050;-56
2021/01/03 05:36:45;;;;;;;265.40;122.98;;;;;;;-1.77;74.07;94618.25;1841669;78;22152;-56
2021/01/03 05:39:22;;;;;;;237.90;111.52;;;;;;;-1.77;74.16;94622.86;1841544;78;21140;-56
2021/01/03 05:42:04;;;;;;;226.45;108.67;;;;;;;-1.69;74.27;94622.55;1824446;78;21188;-56
2021/01/03 05:44:37;;;;;;;206.07;103.35;;;;;;;-1.64;73.93;94616.83;1808446;79;21502;-56
2021/01/03 05:47:17;;;;;;;189.52;94.42;;;;;;;-1.68;74.04;94616.59;1808551;79;21054;-56
2021/01/03 05:49:47;;;;;;;184.52;94.58;;;;;;;-1.66;74.37;94619.69;1808534;79;21378;-57
2021/01/03 05:52:30;;;;;;;191.07;98.67;;;;;;;-1.58;74.52;94615.89;1808452;79;21093;-56
2021/01/03 05:55:07;;;;;;;194.87;98.40;;;;;;;-1.51;74.35;94609.22;1808527;79;21090;-57
2021/01/03 05:57:35;;;;;;;191.37;96.22;;;;;;;-1.43;74.34;94611.59;1808590;79;21057;-56
2021/01/03 06:00:25;;;;;;;189.80;95.65;;;;;;;-1.33;74.03;94608.19;1808511;78;21112;-56
2021/01/03 06:02:52;;;;;;;170.02;88.35;;;;;;;-1.33;73.48;94604.73;1808408;79;21196;-55
2021/01/03 06:05:23;;;;;;;174.85;89.55;;;;;;;-1.46;73.35;94601.56;1814095;79;21145;-57
2021/01/03 06:08:22;;;;;;;163.40;85.10;;;;;;;-1.51;73.45;94615.97;1814234;79;21113;-57
2021/01/03 06:10:50;;;;;;;165.30;84.37;;;;;;;-1.53;73.61;94615.56;1814278;79;21167;-56
2021/01/03 06:13:23;;;;;;;165.45;89.75;;;;;;;-1.57;73.65;94614.73;1814191;79;21073;-56
2021/01/03 06:15:58;;;;;;;136.97;71.87;;;;;;;-1.58;73.79;94609.94;1813892;79;21190;-57
2021/01/03 06:18:40;;;;;;;193.52;93.22;;;;;;;-1.54;74.00;94615.37;1813681;79;21070;-57
2021/01/03 06:21:26;;;;;;;;;;;;;;;-1.49;73.73;94615.02;1815340;79;21089;-57
2021/01/03 06:24:24;;;;;;;235.97;108.67;;;;;;;-1.60;73.78;94612.80;1813680;79;20503;-56
2021/01/03 06:27:05;;;;;;;234.77;110.50;;;;;;;-1.70;73.48;94622.94;1808302;79;21112;-57
2021/01/03 06:30:03;;;;;;;215.03;105.05;;;;;;;-1.88;73.50;94627.95;1813595;78;21193;-57
2021/01/03 06:32:51;;;;;;;217.70;102.90;;;;;;;-1.93;73.90;94629.65;1813537;79;21220;-56
2021/01/03 06:35:32;;;;;;;202.30;101.72;;;;;;;-1.90;74.11;94627.00;1813568;79;21518;-58
2021/01/03 06:38:28;;;;;;;202.97;102.47;;;;;;;-1.89;74.02;94633.94;1813606;79;21172;-57
2021/01/03 06:41:17;;;;;;;185.28;90.85;;;;;;;-1.82;74.42;94619.72;1812803;77;21057;-56
2021/01/03 06:43:53;;;;;;;185.57;94.87;;;;;;;-1.83;74.44;94617.61;1813121;78;21195;-56
2021/01/03 06:47:01;;;;;;;205.92;98.35;;;;;;;-1.86;74.80;94619.71;1813636;79;21561;-57
2021/01/03 06:49:52;;;;;;;259.57;126.75;;;;;;;-1.87;75.01;94618.16;1813688;78;21136;-57
2021/01/03 06:52:54;;;;;;;281.17;132.90;;;;;;;-1.88;75.22;94619.31;1812281;79;21152;-56
2021/01/03 06:55:40;;;;;;;286.45;138.12;;;;;;;-1.86;75.39;94617.02;1813123;78;21160;-57
2021/01/03 06:58:33;;;;;;;256.17;127.97;;;;;;;-1.79;75.49;94625.74;1785031;79;21940;-58
2021/01/03 07:01:06;;;;;;;240.55;121.35;;;;;;;-1.78;75.46;94622.66;1813565;78;21557;-57
2021/01/03 07:03:34;;;;;;;220.80;112.20;;;;;;;-1.65;75.68;94618.54;1812397;78;21216;-60
2021/01/03 07:06:09;;;;;;;243.02;121.40;;;;;;;-1.54;75.45;94619.41;1813703;78;21552;-57
2021/01/03 07:08:51;;;;;;;232.35;115.22;;;;;;;-1.49;75.26;94620.41;1813588;78;21057;-58
2021/01/03 07:11:45;;;;;;;243.27;125.38;;;;;;;-1.43;75.37;94614.86;1813758;78;22291;-59
2021/01/03 07:14:25;;;;;;;249.00;123.90;;;;;;;-1.29;75.13;94620.36;1813551;79;21114;-57
2021/01/03 07:17:04;;;;;;;239.85;129.45;;;;;;;-1.19;74.87;94622.34;1813582;79;21152;-57
2021/01/03 07:19:54;;;;;;;318.57;163.65;;;;;;;-1.16;74.78;94628.36;1813620;79;21141;-55
2021/01/03 07:22:30;;;;;;;410.43;206.87;;;;;;;-1.11;74.87;94635.50;1813549;79;21285;-57
2021/01/03 07:25:08;;;;;;;254.23;121.53;;;;;;;-1.04;74.69;94633.43;1812380;79;21203;-58
2021/01/03 07:27:47;;;;;;;236.92;119.90;;;;;;;-1.06;74.56;94630.33;1813493;78;21117;-62
2021/01/03 07:30:20;;;;;;;246.47;122.70;;;;;;;-1.14;74.47;94628.75;1786305;79;21101;-60
2021/01/03 07:33:00;;;;;;;234.30;125.38;;;;;;;-1.23;74.57;94628.30;1813409;79;21164;-59
2021/01/03 07:35:38;;;;;;;275.35;139.88;;;;;;;-1.25;74.94;94623.29;1813632;79;21152;-60
2021/01/03 07:38:25;;;;;;;580.35;265.62;;;;;;;-1.12;74.93;94611.61;1813624;78;21291;-57
2021/01/03 07:41:04;;;;;;;433.12;221.25;;;;;;;-1.09;74.77;94618.95;1813570;77;21580;-56
2021/01/03 07:43:29;;;;;;;360.88;185.73;;;;;;;-1.13;74.74;94631.06;1813355;79;21176;-58
2021/01/03 07:45:57;;;;;;;339.72;170.80;;;;;;;-1.07;74.71;94639.58;1813529;79;21085;-56
2021/01/03 07:48:38;;;;;;;278.32;144.75;;;;;;;-1.01;74.68;94634.02;1813631;79;21076;-58
2021/01/03 07:51:11;;;;;;;341.08;172.13;;;;;;;-0.92;74.52;94631.19;1813835;79;21201;-58
2021/01/03 07:53:40;;;;;;;357.25;176.15;;;;;;;-0.85;74.76;94619.66;1813688;78;21594;-57
2021/01/03 07:56:27;;;;;;;394.23;210.85;;;;;;;-0.72;74.76;94622.23;1813620;78;21045;-57
2021/01/03 07:58:57;;;;;;;348.00;187.88;;;;;;;-0.55;75.08;94616.14;1813497;78;21073;-58
2021/01/03 08:01:32;;;;;;;340.10;180.55;;;;;;;-0.22;74.91;94615.29;1813558;78;21077;-57
2021/01/03 08:04:10;;;;;;;325.65;175.57;;;;;;;0.01;74.65;94612.46;1812250;78;21251;-58
2021/01/03 08:06:38;;;;;;;326.42;175.27;;;;;;;0.28;74.41;94608.27;1807911;78;21521;-58
2021/01/03 08:09:06;;;;;;;304.70;163.65;;;;;;;0.54;74.02;94616.56;1779071;79;21070;-58
2021/01/03 08:11:39;;;;;;;302.57;171.37;;;;;;;0.68;73.30;94617.92;1807793;79;21069;-59
2021/01/03 08:14:27;;;;;;;269.32;149.15;;;;;;;0.82;73.32;94617.36;1808038;78;21077;-58
2021/01/03 08:17:00;;;;;;;214.38;120.47;;;;;;;1.08;73.03;94622.34;1807841;79;21358;-55
2021/01/03 08:19:28;;;;;;;229.53;122.45;;;;;;;1.27;72.53;94627.33;1808030;78;21121;-58
2021/01/03 08:21:58;;;;;;;275.77;144.62;;;;;;;1.30;72.29;94610.88;1779038;79;21474;-59
2021/01/03 08:24:28;;;;;;;191.82;105.00;;;;;;;1.30;72.52;94614.35;1807780;78;21073;-58
2021/01/03 08:27:01;;;;;;;172.02;97.67;;;;;;;1.31;72.31;94615.89;1807928;79;21148;-57
2021/01/03 08:29:46;;;;;;;141.12;82.88;;;;;;;1.21;72.45;94609.15;1807939;79;21172;-58
2021/01/03 08:32:21;;;;;;;170.17;90.10;;;;;;;1.10;72.24;94617.30;1807824;78;21121;-58
2021/01/03 08:34:50;;;;;;;207.98;103.47;;;;;;;1.01;72.32;94614.80;1807887;79;21498;-58
2021/01/03 08:37:22;;;;;;;217.13;116.67;;;;;;;0.97;72.48;94610.73;1807747;78;21156;-59
2021/01/03 08:39:54;;;;;;;207.18;110.03;;;;;;;1.00;72.62;94612.66;1807862;78;21121;-59
2021/01/03 08:42:29;;;;;;;202.05;108.57;;;;;;;1.14;72.97;94611.29;1807834;78;21195;-58
2021/01/03 08:44:58;;;;;;;209.80;110.10;;;;;;;1.31;73.12;94616.49;1778898;79;21098;-58
2021/01/03 08:47:36;;;;;;;200.50;106.50;;;;;;;1.49;72.67;94607.13;1807741;78;21127;-58
2021/01/03 08:50:18;;;;;;;198.05;109.17;;;;;;;1.61;72.55;94617.55;1807873;79;21482;-57
2021/01/03 08:53:02;;;;;;;183.40;100.55;;;;;;;1.69;72.58;94605.50;1807790;79;21483;-58
2021/01/03 08:55:34;;;;;;;185.40;96.37;;;;;;;1.90;72.44;94606.75;1807682;79;21326;-57
2021/01/03 08:58:09;;;;;;;259.43;146.13;;;;;;;1.99;71.90;94607.11;1807844;78;21121;-57
2021/01/03 09:00:41;;;;;;;198.95;113.08;;;;;;;1.99;71.87;94611.17;1807670;79;21113;-57
2021/01/03 09:03:18;;;;;;;204.40;122.67;;;;;;;1.97;71.79;94604.02;1807936;78;21481;-56
2021/01/03 09:05:53;;;;;;;174.75;105.60;;;;;;;1.97;71.75;94610.80;1812315;79;21108;-58
2021/01/03 09:08:35;;;;;;;213.15;117.65;;;;;;;2.01;71.42;94607.48;1786415;79;21267;-57
2021/01/03 09:11:31;;;;;;;187.05;107.20;;;;;;;2.06;71.36;94611.13;1813506;79;21088;-57
2021/01/03 09:14:25;;;;;;;198.60;112.52;;;;;;;2.16;71.13;94602.17;1813546;79;21553;-57
2021/01/03 09:17:20;;;;;;;215.70;122.82;;;;;;;2.26;71.07;94597.24;1813520;78;21564;-56
2021/01/03 09:20:22;;;;;;;204.20;115.10;;;;;;;2.39;71.20;94594.25;1813505;79;21061;-58
2021/01/03 09:22:53;;;;;;;193.05;110.63;;;;;;;2.58;71.31;94599.16;1813579;78;22083;-58
2021/01/03 09:25:26;;;;;;;120.28;71.35;;;;;;;2.81;71.15;94604.78;1813528;78;21144;-58
2021/01/03 09:27:55;;;;;;;129.82;80.50;;;;;;;2.97;70.75;94605.81;1813578;78;21596;-58
2021/01/03 09:30:31;;;;;;;174.77;106.35;;;;;;;3.09;70.21;94603.94;1813442;79;21137;-57
2021/01/03 09:33:23;;;;;;;174.00;103.80;;;;;;;3.04;70.06;94602.27;1813533;79;21490;-57
2021/01/03 09:36:29;;;;;;;170.15;103.85;;;;;;;2.98;69.89;94587.55;1757441;80;22457;-57
2021/01/03 09:39:29;;;;;;;156.43;93.42;;;;;;;2.96;70.03;94590.69;1813219;79;21158;-57
2021/01/03 09:42:24;;;;;;;151.72;90.10;;;;;;;3.00;70.10;94585.20;1813391;77;21580;-57
2021/01/03 09:45:30;;;;;;;148.85;87.97;;;;;;;2.87;70.01;94571.95;1813479;79;21153;-58
2021/01/03 09:47:59;;;;;;;183.25;102.15;;;;;;;2.73;70.33;94573.43;1813361;79;21058;-56
2021/01/03 09:50:34;;;;;;;159.10;90.65;;;;;;;2.58;70.66;94582.86;1813510;78;21201;-55
2021/01/03 09:53:29;;;;;;;183.70;103.60;;;;;;;2.52;70.45;94580.40;1812422;78;21073;-58
2021/01/03 09:56:09;;;;;;;196.87;110.35;;;;;;;2.57;70.66;94578.61;1813682;79;21486;-57
2021/01/03 09:58:42;;;;;;;211.12;118.42;;;;;;;2.64;70.98;94577.18;1813571;78;21175;-57
2021/01/03 10:01:30;;;;;;;198.17;117.15;;;;;;;2.74;70.97;94572.26;1813620;79;21161;-57
2021/01/03 10:04:28;;;;;;;195.03;113.92;;;;;;;2.81;70.86;94558.60;1813617;78;21203;-58
2021/01/03 10:07:11;;;;;;;199.85;115.28;;;;;;;2.71;70.88;94545.91;1813593;78;21178;-57
2021/01/03 10:09:39;;;;;;;189.60;117.53;;;;;;;2.55;71.33;94549.16;1813013;79;21089;-57
2021/01/03 10:12:30;;;;;;;190.68;114.12;;;;;;;2.49;71.53;94545.91;1813670;79;21497;-57
2021/01/03 10:15:15;;;;;;;241.93;124.05;;;;;;;2.45;72.00;94550.00;1813674;78;21073;-57
2021/01/03 10:17:57;;;;;;;208.02;115.72;;;;;;;2.41;72.28;94552.55;1813583;79;21244;-58
2021/01/03 10:20:46;;;;;;;203.10;120.60;;;;;;;2.47;72.55;94563.95;1813572;79;21093;-56
2021/01/03 10:23:30;;;;;;;201.50;116.42;;;;;;;2.62;72.68;94551.02;1813672;79;21491;-57
2021/01/03 10:25:59;;;;;;;201.65;122.28;;;;;;;2.82;72.41;94541.13;1813672;79;21073;-59
2021/01/03 10:28:31;;;;;;;200.22;119.20;;;;;;;3.00;72.31;94529.50;1813687;78;21481;-56
2021/01/03 10:30:59;;;;;;;233.65;138.52;;;;;;;3.17;72.44;94517.11;1813747;78;21364;-58
2021/01/03 10:33:28;;;;;;;260.48;140.00;;;;;;;3.33;72.17;94519.24;1797503;78;21089;-58
2021/01/03 10:35:56;;;;;;;211.18;119.20;;;;;;;3.63;71.65;94511.87;1813489;78;21049;-59
2021/01/03 10:38:25;;;;;;;203.52;120.87;;;;;;;4.00;70.93;94505.72;1813564;79;21049;-58
2021/01/03 10:40:56;;;;;;;251.25;148.40;;;;;;;4.21;69.80;94508.13;1783930;77;21072;-60
2021/01/03 10:43:26;;;;;;;203.20;121.75;;;;;;;4.32;69.44;94504.66;1813626;78;21575;-58
2021/01/03 10:45:55;;;;;;;214.32;128.57;;;;;;;4.40;69.02;94497.91;1761656;79;21157;-58
2021/01/03 10:48:24;;;;;;;190.45;117.20;;;;;;;4.29;68.75;94500.05;1786484;79;21140;-57
2021/01/03 10:50:52;;;;;;;182.15;112.92;;;;;;;4.19;68.65;94498.82;1786673;78;21639;-57
2021/01/03 10:53:20;;;;;;;162.00;101.95;;;;;;;4.12;68.64;94496.22;1786884;79;21171;-57
2021/01/03 10:55:50;;;;;;;179.27;110.80;;;;;;;4.10;68.92;94489.84;1813476;78;22152;-58
2021/01/03 10:58:19;;;;;;;155.80;98.82;;;;;;;4.16;68.74;94488.19;1813325;79;21091;-58
2021/01/03 11:00:47;;;;;;;164.80;103.27;;;;;;;4.33;68.44;94484.41;1813484;78;21050;-58
2021/01/03 11:03:16;;;;;;;131.22;76.57;;;;;;;4.67;68.32;94481.51;1786694;79;21616;-57
2021/01/03 11:05:44;;;;;;;146.95;92.47;;;;;;;5.07;67.23;94472.98;1810841;79;21136;-57
2021/01/03 11:08:13;;;;;;;134.93;85.05;;;;;;;5.24;65.70;94471.27;1807693;79;21183;-58
2021/01/03 11:10:42;;;;;;;130.50;81.92;;;;;;;5.24;65.10;94465.81;1807761;79;21230;-56
2021/01/03 11:13:10;;;;;;;120.10;77.40;;;;;;;5.20;64.80;94469.82;1807831;78;21152;-57
2021/01/03 11:15:40;;;;;;;181.50;106.05;;;;;;;5.14;64.23;94466.02;1807883;78;21514;-57
2021/01/03 11:18:09;;;;;;;229.87;127.40;;;;;;;5.00;63.84;94466.29;1807934;79;21085;-57
2021/01/03 11:20:38;;;;;;;207.25;117.53;;;;;;;4.98;63.92;94467.30;1807855;78;21196;-57
2021/01/03 11:23:07;;;;;;;188.10;112.88;;;;;;;5.02;64.13;94468.03;1803961;79;21158;-59
2021/01/03 11:25:36;;;;;;;170.07;100.33;;;;;;;5.14;63.83;94462.55;1807784;78;21470;-56
2021/01/03 11:28:07;;;;;;;156.63;92.33;;;;;;;5.41;63.69;94465.30;1807752;79;21141;-56
2021/01/03 11:30:36;;;;;;;160.20;93.62;;;;;;;6.05;63.20;94454.56;1808131;78;21058;-58
2021/01/03 11:33:05;;;;;;;144.97;82.78;;;;;;;6.88;61.31;94456.42;1807817;79;21193;-57
2021/01/03 11:35:34;;;;;;;160.50;95.53;;;;;;;7.79;59.34;94449.94;1807764;79;21124;-58
2021/01/03 11:38:01;;;;;;;98.50;63.28;;;;;;;8.42;57.93;94451.35;1807855;79;21148;-58
2021/01/03 11:40:30;;;;;;;84.30;53.17;;;;;;;8.84;56.69;94446.59;1807808;78;21066;-59
2021/01/03 11:42:58;;;;;;;63.05;42.25;;;;;;;9.41;54.42;94446.19;1807832;78;21119;-56
2021/01/03 11:45:30;;;;;;;69.25;45.50;;;;;;;10.05;52.42;94437.14;1807774;78;21194;-59